Time;durP1;ratioP1;P1;durP2;ratioP2;P2;SDS_P1;SDS_P2;PMS_P1;PMS_P2;Temp;Humidity;BMP_temperature;BMP_pressure;BME280_temperature;BME280_humidity;BME280_pressure;Samples;Min_cycle;Max_cycle;Signal;HPM_P1;HPM_P2
2022/01/26 00:00:55;;;;;;;27.40;19.65;;;17.00;44.60;;;;;;4971343;28;93254;-69
2022/01/26 00:06:12;;;;;;;28.25;19.40;;;17.00;44.70;;;;;;4972881;28;93153;-69
2022/01/26 00:08:39;;;;;;;26.60;19.40;;;17.00;44.60;;;;;;4973189;28;93175;-69
2022/01/26 00:11:05;;;;;;;28.92;20.42;;;17.00;44.60;;;;;;4971666;28;94014;-69
2022/01/26 00:13:30;;;;;;;27.55;19.38;;;17.00;44.60;;;;;;4973345;28;93122;-69
2022/01/26 00:15:57;;;;;;;25.92;19.38;;;17.00;44.50;;;;;;4972709;28;92511;-69
2022/01/26 00:18:23;;;;;;;27.20;19.45;;;17.00;44.60;;;;;;4972000;28;93194;-69
2022/01/26 00:20:57;;;;;;;25.50;18.52;;;17.00;44.60;;;;;;4971935;28;92685;-69
2022/01/26 00:26:14;;;;;;;26.33;19.20;;;16.90;44.60;;;;;;4972532;28;92769;-70
2022/01/26 00:28:59;;;;;;;25.17;18.17;;;17.00;44.70;;;;;;4971063;28;95869;-69
2022/01/26 00:38:34;;;;;;;25.25;18.63;;;16.90;44.70;;;;;;4972471;28;92689;-68
2022/01/26 00:40:06;;;;;;;26.52;19.10;;;16.90;44.70;;;;;;4971029;28;92666;-69
2022/01/26 00:42:37;;;;;;;27.38;19.38;;;16.90;44.80;;;;;;4971314;28;93559;-69
2022/01/26 00:45:04;;;;;;;26.27;18.88;;;16.90;44.70;;;;;;4971604;28;93263;-69
2022/01/26 00:47:30;;;;;;;27.00;18.98;;;16.90;44.70;;;;;;4971555;28;92199;-69
2022/01/26 00:50:00;;;;;;;24.35;18.25;;;16.90;44.70;;;;;;4971624;28;94183;-69
2022/01/26 00:52:37;;;;;;;26.92;18.85;;;16.90;44.80;;;;;;4972202;28;93846;-69
2022/01/26 00:55:05;;;;;;;26.50;18.80;;;16.90;45.80;;;;;;4971309;28;95418;-69
2022/01/26 00:57:31;;;;;;;24.50;18.00;;;16.90;44.70;;;;;;4971927;28;92479;-69
2022/01/26 00:59:58;;;;;;;24.52;18.55;;;16.90;44.80;;;;;;4971856;28;94471;-69
2022/01/26 01:02:24;;;;;;;24.13;17.80;;;16.90;44.80;;;;;;4972157;28;94315;-69
2022/01/26 01:04:49;;;;;;;26.80;18.52;;;16.90;44.80;;;;;;4971376;28;92595;-69
2022/01/26 01:07:19;;;;;;;24.90;17.58;;;16.90;44.70;;;;;;4972891;28;92996;-69
2022/01/26 01:09:46;;;;;;;25.52;18.65;;;16.90;44.70;;;;;;4971773;28;93357;-69
2022/01/26 01:12:12;;;;;;;25.92;17.38;;;16.90;44.70;;;;;;4971812;28;94019;-69
2022/01/26 01:14:39;;;;;;;26.50;19.25;;;16.90;44.70;;;;;;4971979;28;94255;-69
2022/01/26 01:17:07;;;;;;;26.42;18.70;;;16.90;44.70;;;;;;4975441;28;92496;-69
2022/01/26 01:27:49;;;;;;;26.73;18.58;;;17.00;44.70;;;;;;4970745;28;92622;-69
2022/01/26 01:32:55;;;;;;;25.67;17.67;;;17.00;44.70;;;;;;4970230;28;92469;-70
2022/01/26 01:35:21;;;;;;;24.75;18.23;;;17.00;44.60;;;;;;4971122;28;92873;-70
2022/01/26 01:37:46;;;;;;;24.85;16.85;;;17.00;44.50;;;;;;4970968;28;92957;-70
2022/01/26 01:40:12;;;;;;;26.02;18.00;;;17.10;44.50;;;;;;4970694;28;93962;-69
2022/01/26 01:42:38;;;;;;;24.10;17.40;;;17.10;44.40;;;;;;4969689;28;92973;-69
2022/01/26 01:45:04;;;;;;;25.58;18.33;;;17.10;44.40;;;;;;4968887;28;95019;-69
2022/01/26 01:47:29;;;;;;;24.40;17.52;;;17.10;44.30;;;;;;4970598;28;92935;-69
2022/01/26 01:49:56;;;;;;;22.88;16.88;;;17.10;44.30;;;;;;4970351;28;92995;-70
2022/01/26 01:52:22;;;;;;;23.90;17.23;;;17.10;44.40;;;;;;4970916;28;93350;-69
2022/01/26 01:54:52;;;;;;;22.77;16.90;;;17.10;44.30;;;;;;4970569;28;92620;-70
2022/01/26 01:57:23;;;;;;;22.50;16.80;;;17.10;44.30;;;;;;4969536;28;92668;-69
2022/01/26 01:59:51;;;;;;;26.83;17.40;;;17.20;44.30;;;;;;4969699;28;93978;-69
2022/01/26 02:02:16;;;;;;;24.15;17.85;;;17.20;44.20;;;;;;4969058;28;93802;-70
2022/01/26 02:04:42;;;;;;;23.55;16.63;;;17.10;44.10;;;;;;4969881;28;92879;-69
2022/01/26 02:07:10;;;;;;;22.85;16.63;;;17.10;44.10;;;;;;4952695;28;93024;-69
2022/01/26 02:09:35;;;;;;;22.40;15.93;;;17.10;44.10;;;;;;4968417;28;96614;-69
2022/01/26 02:12:15;;;;;;;22.13;15.95;;;17.20;44.20;;;;;;4969812;28;95480;-69
2022/01/26 02:14:43;;;;;;;23.20;16.23;;;17.20;44.20;;;;;;4970264;28;92710;-70
2022/01/26 02:17:32;;;;;;;23.25;15.82;;;17.10;44.20;;;;;;4969399;28;92863;-70
2022/01/26 02:53:02;;;;;;;19.95;14.32;;;17.10;44.20;;;;;;4968430;28;92703;-69
2022/01/26 02:55:41;;;;;;;20.70;15.18;;;17.10;44.20;;;;;;4969712;28;92687;-69
2022/01/26 03:03:38;;;;;;;23.25;15.48;;;17.00;44.10;;;;;;4967021;28;95420;-69
2022/01/26 03:06:10;;;;;;;20.73;15.07;;;17.00;44.20;;;;;;4968506;28;94216;-69
2022/01/26 03:08:41;;;;;;;22.85;15.60;;;17.00;44.20;;;;;;4969527;28;92493;-70
2022/01/26 03:11:10;;;;;;;21.30;14.82;;;17.00;44.20;;;;;;4972700;28;92491;-69
2022/01/26 03:13:40;;;;;;;21.92;15.32;;;17.00;44.20;;;;;;4971926;28;93778;-69
2022/01/26 03:19:16;;;;;;;23.90;15.45;;;17.00;44.20;;;;;;4958321;28;93017;-68
2022/01/26 03:29:55;;;;;;;23.02;15.82;;;16.90;44.20;;;;;;4972034;28;95443;-68
2022/01/26 03:32:51;;;;;;;21.55;14.68;;;17.00;44.30;;;;;;4971997;28;93125;-68
2022/01/26 03:35:27;;;;;;;21.07;14.37;;;16.90;44.30;;;;;;4971208;28;94274;-68
2022/01/26 03:37:55;;;;;;;21.42;14.48;;;16.90;44.30;;;;;;4971616;28;93715;-68
2022/01/26 03:40:29;;;;;;;19.75;14.45;;;16.90;44.40;;;;;;4972243;28;93145;-70
2022/01/26 03:42:55;;;;;;;22.33;15.32;;;16.90;44.40;;;;;;4972211;28;92783;-69
2022/01/26 03:45:20;;;;;;;21.42;14.38;;;16.90;44.30;;;;;;4971540;28;93150;-68
2022/01/26 03:47:46;;;;;;;20.63;14.60;;;16.90;44.30;;;;;;4972065;28;93056;-68
2022/01/26 03:50:12;;;;;;;21.05;14.65;;;16.90;44.30;;;;;;4972431;28;93049;-69
2022/01/26 03:52:37;;;;;;;22.70;14.70;;;16.90;44.30;;;;;;4973028;28;92802;-68
2022/01/26 03:55:04;;;;;;;19.67;14.02;;;16.90;44.30;;;;;;4971109;28;95428;-69
2022/01/26 03:57:30;;;;;;;23.10;15.55;;;16.90;44.50;;;;;;4971103;28;96132;-69
2022/01/26 03:59:55;;;;;;;19.70;13.82;;;16.90;44.30;;;;;;4970551;28;93378;-71
2022/01/26 05:45:35;;;;;;;14.23;9.30;;;18.50;41.90;;;;;;4870030;28;95333;-69
2022/01/26 05:48:03;;;;;;;11.82;9.48;;;18.40;42.00;;;;;;4874691;28;95925;-69
2022/01/26 05:50:32;;;;;;;12.38;9.73;;;18.40;42.10;;;;;;4876254;28;92795;-69
2022/01/26 05:52:58;;;;;;;14.30;10.40;;;18.30;42.10;;;;;;4875486;28;92537;-69
2022/01/26 05:55:23;;;;;;;14.57;10.40;;;18.30;42.20;;;;;;4875529;28;93106;-69
2022/01/26 05:57:49;;;;;;;13.52;10.30;;;18.20;42.30;;;;;;4875413;28;92712;-71
2022/01/26 06:00:15;;;;;;;15.85;11.50;;;18.10;42.50;;;;;;4875435;28;92927;-69
2022/01/26 06:02:41;;;;;;;14.35;10.57;;;18.10;42.50;;;;;;4875423;28;92071;-69
2022/01/26 06:05:07;;;;;;;15.23;12.07;;;18.00;42.60;;;;;;4874360;28;93304;-69
2022/01/26 06:07:33;;;;;;;16.52;11.65;;;18.00;42.70;;;;;;4874579;28;93301;-70
2022/01/26 06:09:59;;;;;;;15.82;12.23;;;17.90;42.80;;;;;;4873630;28;95042;-70
2022/01/26 06:12:24;;;;;;;16.35;11.93;;;17.90;44.00;;;;;;4874561;28;93191;-71
2022/01/26 06:14:52;;;;;;;18.83;12.88;;;17.80;43.00;;;;;;4874773;28;93051;-69
2022/01/26 06:17:18;;;;;;;18.08;13.10;;;17.70;43.10;;;;;;4874252;28;94377;-68
2022/01/26 06:19:43;;;;;;;18.20;13.13;;;17.70;43.20;;;;;;4874913;28;92955;-70
2022/01/26 06:22:09;;;;;;;18.13;13.23;;;17.60;43.30;;;;;;4874108;28;92613;-71
2022/01/26 06:24:34;;;;;;;18.67;13.77;;;17.60;44.50;;;;;;4874693;28;93165;-69
2022/01/26 06:27:00;;;;;;;20.30;14.32;;;17.50;43.50;;;;;;4874885;28;93415;-69
2022/01/26 06:29:26;;;;;;;20.45;14.25;;;17.50;43.50;;;;;;4874701;28;92795;-70
2022/01/26 06:31:51;;;;;;;19.77;15.05;;;17.40;43.50;;;;;;4874681;28;92883;-69
2022/01/26 06:34:17;;;;;;;19.48;15.10;;;17.30;43.60;;;;;;4873305;28;94924;-69
2022/01/26 06:36:43;;;;;;;21.80;15.93;;;17.30;43.80;;;;;;4874034;28;95221;-68
2022/01/26 06:39:12;;;;;;;22.05;15.80;;;17.30;44.30;;;;;;4873499;28;92478;-70
2022/01/26 06:41:40;;;;;;;20.17;15.82;;;17.30;44.00;;;;;;4875066;28;92490;-70
2022/01/26 06:44:18;;;;;;;21.58;16.10;;;17.20;44.10;;;;;;4891795;28;94076;-71
2022/01/26 06:47:18;;;;;;;23.20;16.88;;;17.20;44.20;;;;;;4896864;28;93021;-70
2022/01/26 06:49:44;;;;;;;24.50;17.30;;;17.10;44.20;;;;;;4896542;28;92623;-70
2022/01/26 06:52:10;;;;;;;25.92;18.13;;;17.10;44.10;;;;;;4895178;28;92182;-69
2022/01/26 06:54:35;;;;;;;26.00;18.63;;;17.00;44.20;;;;;;4896698;28;93017;-69
2022/01/26 06:57:01;;;;;;;25.58;18.52;;;17.00;44.20;;;;;;4895651;28;103358;-71
2022/01/26 06:59:26;;;;;;;29.55;21.27;;;17.00;44.20;;;;;;4895189;28;94942;-69
2022/01/26 07:01:52;;;;;;;36.53;23.65;;;17.00;44.20;;;;;;4896071;28;92780;-69
2022/01/26 07:04:18;;;;;;;33.58;23.40;;;17.00;44.00;;;;;;4896734;28;92975;-69
2022/01/26 07:06:43;;;;;;;33.38;24.55;;;17.00;43.90;;;;;;4896149;28;94716;-72
2022/01/26 07:09:09;;;;;;;36.88;25.23;;;17.00;43.80;;;;;;4895348;28;94078;-70
2022/01/26 07:11:35;;;;;;;38.15;25.92;;;17.00;43.80;;;;;;4896419;28;93140;-70
2022/01/26 07:14:02;;;;;;;37.03;26.63;;;17.10;43.70;;;;;;4894156;28;98325;-71
2022/01/26 07:21:56;;;;;;;40.28;28.25;;;17.20;43.40;;;;;;4896752;28;92932;-69
2022/01/26 07:24:22;;;;;;;41.25;28.38;;;17.20;43.40;;;;;;4895193;28;99284;-69
2022/01/26 07:26:52;;;;;;;41.25;29.13;;;17.30;43.40;;;;;;4896483;28;95735;-69
2022/01/26 07:29:22;;;;;;;42.88;29.92;;;17.30;43.20;;;;;;4896371;28;92658;-69
2022/01/26 07:31:59;;;;;;;40.03;28.70;;;17.30;42.90;;;;;;4896247;28;92566;-69
2022/01/26 07:34:25;;;;;;;45.40;30.88;;;17.40;42.70;;;;;;4900091;28;92714;-69
2022/01/26 07:36:54;;;;;;;44.42;31.25;;;17.40;42.80;;;;;;4897783;28;92838;-69
2022/01/26 07:39:31;;;;;;;41.80;30.15;;;17.40;42.60;;;;;;4895771;28;92908;-69
2022/01/26 07:41:57;;;;;;;40.97;30.25;;;17.30;42.50;;;;;;4895376;28;92117;-69
2022/01/26 07:44:22;;;;;;;43.53;31.02;;;17.40;42.60;;;;;;4894923;28;92959;-70
2022/01/26 07:46:48;;;;;;;45.25;30.50;;;17.40;42.50;;;;;;4895136;28;92994;-70
2022/01/26 07:49:14;;;;;;;47.22;31.77;;;17.40;42.40;;;;;;4893491;28;95043;-67
2022/01/26 07:51:40;;;;;;;46.50;33.03;;;17.40;42.30;;;;;;4896096;28;93097;-68
2022/01/26 07:54:06;;;;;;;46.45;32.05;;;17.40;42.30;;;;;;4893265;28;93169;-68
2022/01/26 07:56:32;;;;;;;45.05;31.80;;;17.50;42.30;;;;;;4894702;28;95199;-68
2022/01/26 07:58:58;;;;;;;46.80;32.42;;;17.50;42.10;;;;;;4894942;28;92750;-70
2022/01/26 08:01:23;;;;;;;48.45;33.65;;;17.50;42.00;;;;;;4894860;28;93157;-68
2022/01/26 08:03:50;;;;;;;45.30;31.67;;;17.60;42.00;;;;;;4894458;28;93065;-68
2022/01/26 08:06:18;;;;;;;47.13;32.47;;;17.60;42.00;;;;;;4895288;28;92830;-68
2022/01/26 08:08:44;;;;;;;46.83;33.00;;;17.60;41.80;;;;;;4895759;28;93084;-69
2022/01/26 08:11:10;;;;;;;47.13;33.78;;;17.70;41.70;;;;;;4895581;28;93138;-68
2022/01/26 08:13:39;;;;;;;46.72;31.73;;;17.70;41.70;;;;;;4892809;28;95471;-68
2022/01/26 08:16:04;;;;;;;46.45;31.95;;;17.70;41.60;;;;;;4895299;28;95219;-68
2022/01/26 08:18:30;;;;;;;46.95;33.47;;;17.70;41.50;;;;;;4895204;28;92971;-68
2022/01/26 08:21:03;;;;;;;47.13;33.45;;;17.80;41.50;;;;;;4895336;28;92813;-68
2022/01/26 08:23:29;;;;;;;;;;;17.80;41.40;;;;;;4894699;28;94963;-70
2022/01/26 08:25:54;;;;;;;44.78;32.33;;;17.80;41.40;;;;;;4897050;28;92959;-68
2022/01/26 08:28:28;;;;;;;47.95;34.15;;;17.80;41.40;;;;;;4895191;28;93434;-69
2022/01/26 08:30:54;;;;;;;45.78;33.58;;;17.80;41.20;;;;;;4895374;28;91966;-68
2022/01/26 08:33:19;;;;;;;47.38;33.38;;;17.80;41.30;;;;;;4895065;28;94160;-68
2022/01/26 08:35:46;;;;;;;47.50;33.13;;;17.80;41.30;;;;;;4895277;28;92940;-69
2022/01/26 08:38:12;;;;;;;47.47;33.78;;;17.80;41.20;;;;;;4893144;28;94880;-69
2022/01/26 08:40:38;;;;;;;45.80;32.33;;;17.80;41.10;;;;;;4895334;28;93046;-69
2022/01/26 08:43:04;;;;;;;45.38;32.17;;;17.90;41.20;;;;;;4895214;28;95064;-69
2022/01/26 08:45:30;;;;;;;46.33;32.38;;;17.90;41.20;;;;;;4894069;28;94104;-69
2022/01/26 08:47:56;;;;;;;44.42;31.92;;;17.90;41.10;;;;;;4893544;28;93338;-70
2022/01/26 08:50:22;;;;;;;43.78;30.95;;;17.90;41.00;;;;;;4895349;28;92565;-70
2022/01/26 08:52:47;;;;;;;44.22;31.60;;;18.00;40.90;;;;;;4894635;28;93573;-70
2022/01/26 08:55:14;;;;;;;44.13;30.70;;;18.00;40.90;;;;;;4895428;28;93862;-70
2022/01/26 08:57:39;;;;;;;47.17;31.60;;;18.00;40.90;;;;;;4894769;28;92818;-69
2022/01/26 09:00:08;;;;;;;42.13;30.52;;;18.10;40.80;;;;;;4894727;28;93050;-70
2022/01/26 09:02:34;;;;;;;43.83;30.42;;;18.10;40.70;;;;;;4892807;28;95453;-70
2022/01/26 09:05:00;;;;;;;42.72;29.88;;;18.10;40.60;;;;;;4877202;28;98195;-70
2022/01/26 09:07:26;;;;;;;42.67;30.27;;;18.10;40.60;;;;;;4894337;28;92594;-69
2022/01/26 09:09:55;;;;;;;41.92;29.83;;;18.20;40.60;;;;;;4894092;28;94481;-70
2022/01/26 09:12:23;;;;;;;39.22;28.42;;;18.10;40.60;;;;;;4893924;28;93657;-70
2022/01/26 09:14:48;;;;;;;36.90;27.10;;;18.10;40.70;;;;;;4894327;28;93654;-69
2022/01/26 09:17:14;;;;;;;38.53;27.60;;;18.10;40.60;;;;;;4894655;28;92860;-70
2022/01/26 09:19:45;;;;;;;37.53;27.10;;;18.20;40.50;;;;;;4896429;28;91818;-70
2022/01/26 09:22:14;;;;;;;37.92;27.00;;;18.20;40.40;;;;;;4898675;28;93276;-69
2022/01/26 09:24:40;;;;;;;35.67;26.20;;;18.20;40.40;;;;;;4898252;28;92860;-69
2022/01/26 09:27:08;;;;;;;38.28;26.95;;;18.20;40.40;;;;;;4893571;28;94995;-69
2022/01/26 09:29:35;;;;;;;36.17;25.40;;;18.20;40.30;;;;;;4894408;28;92533;-70
2022/01/26 09:32:03;;;;;;;36.20;25.00;;;18.30;40.30;;;;;;4895459;28;92827;-69
2022/01/26 09:34:30;;;;;;;35.22;24.67;;;18.30;40.30;;;;;;4894779;28;94516;-69
2022/01/26 09:36:56;;;;;;;38.58;24.80;;;18.30;40.20;;;;;;4895966;28;92404;-69
2022/01/26 09:39:24;;;;;;;33.35;24.05;;;18.30;40.20;;;;;;4895495;28;92552;-69
2022/01/26 09:41:51;;;;;;;34.72;25.25;;;18.30;40.20;;;;;;4893740;28;93118;-69
2022/01/26 09:44:18;;;;;;;35.63;25.38;;;18.20;40.20;;;;;;4893675;28;93148;-69
2022/01/26 09:46:44;;;;;;;32.35;23.65;;;18.20;40.30;;;;;;4893536;28;92944;-67
2022/01/26 09:49:11;;;;;;;33.20;24.40;;;18.20;40.40;;;;;;4893640;28;92975;-68
2022/01/26 09:51:43;;;;;;;33.63;23.30;;;18.20;40.30;;;;;;4891908;28;95988;-68
2022/01/26 09:54:13;;;;;;;32.75;23.75;;;18.20;40.30;;;;;;4893475;28;95704;-70
2022/01/26 09:56:40;;;;;;;35.45;24.20;;;18.20;40.20;;;;;;4894443;28;92444;-68
2022/01/26 09:59:07;;;;;;;32.15;23.05;;;18.20;40.10;;;;;;4892526;28;93111;-70
2022/01/26 10:01:43;;;;;;;34.30;22.80;;;18.20;40.10;;;;;;4893011;28;93280;-68
2022/01/26 10:04:38;;;;;;;31.23;22.55;;;18.20;40.20;;;;;;4893335;28;92966;-68
2022/01/26 10:15:28;;;;;;;30.10;21.23;;;18.20;40.20;;;;;;4891616;28;93252;-68
2022/01/26 10:18:14;;;;;;;27.83;19.65;;;18.20;40.20;;;;;;4892608;28;95235;-69
2022/01/26 10:20:49;;;;;;;28.73;20.75;;;18.20;40.10;;;;;;4893708;28;94218;-68
2022/01/26 10:23:24;;;;;;;28.70;19.88;;;18.20;40.20;;;;;;4893394;28;93109;-68
2022/01/26 10:26:05;;;;;;;29.17;20.00;;;18.10;40.20;;;;;;4893018;28;92542;-68
2022/01/26 10:28:45;;;;;;;25.73;18.10;;;18.10;40.20;;;;;;4893293;28;93319;-68
2022/01/26 10:31:24;;;;;;;28.33;19.17;;;18.20;40.20;;;;;;4892983;28;93059;-68
2022/01/26 10:34:00;;;;;;;25.85;18.65;;;18.20;40.10;;;;;;4893419;28;92990;-70
2022/01/26 10:37:05;;;;;;;25.48;18.75;;;18.20;40.00;;;;;;4893426;28;92847;-68
2022/01/26 10:39:45;;;;;;;29.70;18.42;;;18.20;40.00;;;;;;4890674;28;92635;-68
2022/01/26 10:42:18;;;;;;;25.60;18.38;;;18.10;40.10;;;;;;4885607;28;93023;-68
2022/01/26 10:44:52;;;;;;;27.23;17.67;;;18.10;40.20;;;;;;4890955;28;95552;-68
2022/01/26 10:47:34;;;;;;;24.75;17.40;;;18.10;40.20;;;;;;4892196;28;97410;-68
2022/01/26 10:50:30;;;;;;;26.45;18.27;;;18.10;40.10;;;;;;4892897;28;92921;-68
2022/01/26 10:53:08;;;;;;;25.73;17.38;;;18.10;40.10;;;;;;4892051;28;94344;-69
2022/01/26 10:55:36;;;;;;;24.65;17.60;;;18.20;40.10;;;;;;4892962;28;92621;-69
2022/01/26 10:58:03;;;;;;;24.05;16.95;;;18.20;40.10;;;;;;4892702;28;93840;-69
2022/01/26 11:00:35;;;;;;;27.55;17.75;;;18.10;40.00;;;;;;4891126;28;92537;-69
2022/01/26 11:03:01;;;;;;;26.38;17.88;;;18.10;40.10;;;;;;4885870;28;92607;-69
2022/01/26 11:05:26;;;;;;;25.08;17.52;;;18.10;40.10;;;;;;4891762;28;101625;-69
2022/01/26 11:07:56;;;;;;;27.02;17.63;;;18.00;40.20;;;;;;4893807;28;95091;-69
2022/01/26 11:10:35;;;;;;;24.27;17.73;;;18.00;40.20;;;;;;4893661;28;96549;-69
2022/01/26 11:13:02;;;;;;;25.80;17.20;;;17.90;40.20;;;;;;4894910;28;92404;-69
2022/01/26 11:15:28;;;;;;;25.42;17.33;;;17.90;40.30;;;;;;4893779;28;94753;-69
2022/01/26 11:18:08;;;;;;;27.10;18.35;;;17.80;40.40;;;;;;4892738;28;92730;-69
2022/01/26 11:20:48;;;;;;;23.88;17.52;;;17.80;40.40;;;;;;4892656;28;93149;-68
2022/01/26 11:23:13;;;;;;;24.85;17.58;;;17.70;40.50;;;;;;4892846;28;92834;-68
2022/01/26 11:25:45;;;;;;;24.73;17.38;;;17.60;40.70;;;;;;4891968;28;94266;-72
2022/01/26 11:28:23;;;;;;;26.70;17.67;;;17.60;40.70;;;;;;4893185;28;92866;-68
2022/01/26 11:30:51;;;;;;;23.88;17.35;;;17.60;40.70;;;;;;4894197;28;92858;-68
2022/01/26 11:33:24;;;;;;;25.35;17.40;;;17.50;40.80;;;;;;4895175;28;92585;-69
2022/01/26 11:35:53;;;;;;;24.23;17.67;;;17.50;40.90;;;;;;4893835;28;96899;-68
2022/01/26 11:39:05;;;;;;;27.73;18.50;;;17.50;41.10;;;;;;4895196;28;95497;-69
2022/01/26 11:47:20;;;;;;;25.80;16.63;;;17.60;42.00;;;;;;4895376;28;92661;-68
2022/01/26 11:49:46;;;;;;;;;;;17.60;42.10;;;;;;4896135;28;92528;-69
2022/01/26 11:52:24;;;;;;;23.20;16.55;;;17.60;42.20;;;;;;4896674;28;92518;-69
2022/01/26 11:54:52;;;;;;;24.30;16.23;;;17.60;42.10;;;;;;4895969;28;91768;-69
2022/01/26 11:57:21;;;;;;;23.92;15.77;;;17.70;42.00;;;;;;4894570;28;94064;-69
2022/01/26 11:59:59;;;;;;;21.67;14.98;;;17.80;41.90;;;;;;4895514;28;93983;-68
2022/01/26 12:02:50;;;;;;;24.67;15.43;;;17.90;41.80;;;;;;4894065;28;94975;-69
2022/01/26 12:05:20;;;;;;;23.38;14.88;;;17.90;41.60;;;;;;4896189;28;92876;-68
2022/01/26 12:07:57;;;;;;;25.08;15.23;;;17.90;41.60;;;;;;4894598;28;94734;-69
2022/01/26 12:10:28;;;;;;;24.52;15.20;;;17.90;41.60;;;;;;4894808;28;93963;-69
2022/01/26 12:13:15;;;;;;;24.75;15.70;;;17.90;41.60;;;;;;4894976;28;92911;-67
2022/01/26 12:15:51;;;;;;;22.55;15.38;;;17.90;41.60;;;;;;4895096;28;92828;-69
2022/01/26 12:32:14;;;;;;;24.00;14.05;;;17.90;41.60;;;;;;4895351;28;94862;-69
2022/01/26 12:42:56;;;;;;;24.25;13.90;;;17.80;42.20;;;;;;4894455;28;92542;-69
2022/01/26 12:45:27;;;;;;;22.80;13.35;;;17.90;42.40;;;;;;4894767;28;92947;-69
2022/01/26 12:47:55;;;;;;;22.80;13.93;;;17.90;42.60;;;;;;4895379;28;92246;-69
2022/01/26 12:50:23;;;;;;;21.05;13.98;;;18.00;42.70;;;;;;4895219;28;94146;-69
2022/01/26 12:52:52;;;;;;;22.73;13.43;;;18.00;43.80;;;;;;4895321;28;94072;-70
2022/01/26 12:55:32;;;;;;;19.95;13.38;;;18.00;42.80;;;;;;4894904;28;94807;-70
2022/01/26 12:57:58;;;;;;;25.20;14.02;;;18.00;43.00;;;;;;4899076;28;93014;-72
2022/01/26 13:00:25;;;;;;;22.40;14.30;;;18.00;43.00;;;;;;4897944;28;93192;-69
2022/01/26 13:02:52;;;;;;;22.27;13.82;;;18.00;43.20;;;;;;4895807;28;94222;-70
2022/01/26 13:05:26;;;;;;;24.15;14.85;;;18.00;43.20;;;;;;4896528;28;93025;-69
2022/01/26 13:08:02;;;;;;;24.55;14.35;;;18.00;43.20;;;;;;4893932;28;92681;-70
2022/01/26 13:10:30;;;;;;;26.02;14.43;;;17.90;43.10;;;;;;4893588;28;94077;-70
2022/01/26 13:13:08;;;;;;;23.25;14.55;;;17.90;43.10;;;;;;4893586;28;94487;-70
2022/01/26 13:15:42;;;;;;;22.15;14.18;;;17.90;42.90;;;;;;4894520;28;92904;-70
2022/01/26 13:18:48;;;;;;;25.63;14.02;;;17.90;42.80;;;;;;4893959;28;92630;-69
2022/01/26 13:24:35;;;;;;;19.83;13.80;;;17.90;42.60;;;;;;4883626;28;95126;-70
2022/01/26 13:27:22;;;;;;;23.52;13.75;;;17.90;42.60;;;;;;4892900;28;93011;-69
2022/01/26 13:30:08;;;;;;;24.60;13.70;;;17.80;42.50;;;;;;4894735;28;93015;-70
2022/01/26 13:32:59;;;;;;;20.23;13.05;;;17.90;42.60;;;;;;4892729;28;94687;-70
2022/01/26 13:35:42;;;;;;;20.90;13.73;;;17.90;42.40;;;;;;4893012;28;94547;-70
2022/01/26 13:38:27;;;;;;;21.15;14.02;;;18.00;42.30;;;;;;4894137;28;92968;-69
2022/01/26 13:46:44;;;;;;;20.38;13.57;;;18.00;42.20;;;;;;4893654;28;93077;-69
2022/01/26 13:59:19;;;;;;;23.60;13.05;;;17.90;42.00;;;;;;4892659;28;92616;-70
2022/01/26 14:01:46;;;;;;;21.83;14.50;;;18.00;42.00;;;;;;4893883;28;92870;-70
2022/01/26 14:04:15;;;;;;;21.25;13.63;;;18.00;42.00;;;;;;4893213;28;94460;-70
2022/01/26 14:06:41;;;;;;;23.63;13.52;;;18.00;41.90;;;;;;4893233;28;93418;-70
2022/01/26 14:09:07;;;;;;;18.00;12.30;;;17.90;41.90;;;;;;4892621;28;93126;-70
2022/01/26 14:11:33;;;;;;;23.55;14.25;;;17.90;41.90;;;;;;4893687;28;92746;-70
2022/01/26 14:14:00;;;;;;;19.02;13.43;;;17.90;42.00;;;;;;4892086;28;96032;-70
2022/01/26 14:16:28;;;;;;;20.77;13.85;;;18.00;42.00;;;;;;4891325;28;95357;-69
2022/01/26 14:21:44;;;;;;;20.02;13.20;;;18.00;41.80;;;;;;4892978;28;92817;-69
2022/01/26 14:24:24;;;;;;;18.10;12.93;;;18.00;41.80;;;;;;4893023;28;93489;-70
2022/01/26 14:26:54;;;;;;;19.42;13.48;;;18.00;42.80;;;;;;4892072;28;93011;-70
2022/01/26 14:29:40;;;;;;;18.95;13.25;;;18.00;42.00;;;;;;4892958;28;92777;-71
2022/01/26 14:35:06;;;;;;;18.75;13.20;;;18.00;41.90;;;;;;4893064;28;92938;-70
2022/01/26 15:00:02;;;;;;;19.67;13.15;;;17.80;41.90;;;;;;4891827;28;92998;-70
2022/01/26 15:32:52;;;;;;;22.08;14.60;;;17.30;43.00;;;;;;4895050;28;92875;-70
2022/01/26 15:40:29;;;;;;;20.95;14.35;;;17.10;43.30;;;;;;4893698;28;94161;-70
2022/01/26 15:50:44;;;;;;;19.23;12.85;;;17.30;43.30;;;;;;4893580;28;92927;-70
2022/01/26 15:59:02;;;;;;;17.10;11.77;;;17.60;42.60;;;;;;4895531;28;92832;-70
2022/01/26 16:37:43;;;;;;;15.05;7.97;;;18.50;42.00;;;;;;4897573;28;92498;-71
2022/01/26 17:11:10;;;;;;;13.63;8.80;;;18.90;44.20;;;;;;4894369;28;92907;-70
2022/01/26 17:12:56;;;;;;;13.95;8.00;;;18.90;45.40;;;;;;4892941;28;92535;-69
2022/01/26 18:04:39;;;;;;;17.17;7.45;;;19.30;46.60;;;;;;4893737;28;92893;-70
2022/01/26 18:15:38;;;;;;;16.58;7.13;;;19.40;46.60;;;;;;4894683;28;92933;-70
2022/01/26 18:26:17;;;;;;;12.32;6.63;;;19.40;47.00;;;;;;4894510;28;92760;-68
2022/01/26 18:50:05;;;;;;;10.40;6.18;;;19.50;46.50;;;;;;4897499;28;92580;-70
2022/01/26 18:52:32;;;;;;;10.82;6.60;;;19.50;46.50;;;;;;4896619;28;92983;-70
2022/01/26 18:54:58;;;;;;;9.95;6.43;;;19.40;46.40;;;;;;4896184;28;94983;-69
2022/01/26 18:57:25;;;;;;;10.48;6.75;;;19.40;46.50;;;;;;4896026;28;104324;-70
2022/01/26 18:59:50;;;;;;;9.70;6.72;;;19.40;46.60;;;;;;4895859;28;92456;-71
2022/01/26 19:02:16;;;;;;;13.35;7.35;;;19.30;46.60;;;;;;4896619;28;91792;-70
2022/01/26 19:04:45;;;;;;;9.65;6.68;;;19.30;46.70;;;;;;4896269;28;93493;-70
2022/01/26 19:07:12;;;;;;;9.10;7.15;;;19.20;46.70;;;;;;4894733;28;94462;-70
2022/01/26 19:09:41;;;;;;;11.07;6.85;;;19.20;46.70;;;;;;4895855;28;95352;-70
2022/01/26 19:12:12;;;;;;;12.73;7.30;;;19.20;46.70;;;;;;4896188;28;93782;-70
2022/01/26 19:14:45;;;;;;;9.60;6.95;;;19.10;46.80;;;;;;4896452;28;93220;-69
2022/01/26 19:20:02;;;;;;;11.93;6.57;;;19.10;47.20;;;;;;4895054;28;92528;-69
2022/01/26 19:25:41;;;;;;;12.77;6.95;;;19.10;47.40;;;;;;4895470;28;93565;-70
2022/01/26 19:28:10;;;;;;;9.55;6.70;;;19.20;47.50;;;;;;4893985;28;94135;-70
2022/01/26 19:47:11;;;;;;;11.02;7.75;;;19.10;47.80;;;;;;4881627;28;94009;-71
2022/01/26 19:52:18;;;;;;;11.13;7.28;;;19.00;47.50;;;;;;4894949;28;92479;-71
2022/01/26 19:54:46;;;;;;;13.95;7.50;;;19.00;47.60;;;;;;4897448;28;92449;-69
2022/01/26 19:57:12;;;;;;;11.55;8.20;;;19.00;47.70;;;;;;4895320;28;94282;-69
2022/01/26 19:59:38;;;;;;;14.18;7.45;;;18.90;47.70;;;;;;4896031;28;93394;-69
2022/01/26 20:02:05;;;;;;;14.40;8.20;;;18.80;48.10;;;;;;4895285;28;95010;-70
2022/01/26 20:04:32;;;;;;;12.20;8.25;;;18.80;48.30;;;;;;4895912;28;92631;-68
2022/01/26 20:07:25;;;;;;;10.88;7.55;;;18.80;48.80;;;;;;4895213;28;93190;-70
2022/01/26 20:09:51;;;;;;;11.38;7.80;;;18.80;48.80;;;;;;4896575;28;94851;-69
2022/01/26 20:14:51;;;;;;;13.98;8.10;;;18.60;48.50;;;;;;4896529;28;92789;-69
2022/01/26 20:17:16;;;;;;;14.52;8.07;;;18.60;48.80;;;;;;4895495;28;94057;-69
2022/01/26 20:19:42;;;;;;;11.45;7.57;;;18.60;49.00;;;;;;4894693;28;93031;-70
2022/01/26 20:22:08;;;;;;;13.90;8.27;;;18.50;49.00;;;;;;4894901;28;97422;-69
2022/01/26 20:24:35;;;;;;;13.65;7.68;;;18.50;48.90;;;;;;4877697;28;93140;-68
2022/01/26 20:27:05;;;;;;;10.77;7.80;;;18.40;48.90;;;;;;4893180;28;96918;-69
2022/01/26 20:29:37;;;;;;;11.40;7.78;;;18.40;49.20;;;;;;4894946;28;95237;-68
2022/01/26 20:32:04;;;;;;;12.68;7.80;;;18.40;49.10;;;;;;4877652;28;92999;-68
2022/01/26 20:34:30;;;;;;;12.88;8.75;;;18.30;49.00;;;;;;4895042;28;93324;-68
2022/01/26 20:36:57;;;;;;;10.43;7.85;;;18.30;49.10;;;;;;4894474;28;98132;-67
2022/01/26 20:39:22;;;;;;;12.27;8.23;;;18.30;49.30;;;;;;4894634;28;102850;-68
2022/01/26 20:41:49;;;;;;;12.25;7.82;;;18.20;49.40;;;;;;4895006;28;92682;-68
2022/01/26 20:44:14;;;;;;;12.63;8.55;;;18.20;49.30;;;;;;4894288;28;92416;-69
2022/01/26 20:46:40;;;;;;;13.30;8.15;;;18.10;49.70;;;;;;4893098;28;94345;-68
2022/01/26 20:49:06;;;;;;;11.63;8.30;;;18.10;49.80;;;;;;4894029;28;93818;-68
2022/01/26 20:51:34;;;;;;;10.85;8.02;;;18.00;49.90;;;;;;4892697;28;95320;-70
2022/01/26 20:53:59;;;;;;;11.45;8.35;;;18.00;50.00;;;;;;4894770;28;92507;-68
2022/01/26 20:56:26;;;;;;;10.60;8.43;;;18.00;50.00;;;;;;4893633;28;101734;-68